Time;durP1;ratioP1;P1;durP2;ratioP2;P2;SDS_P1;SDS_P2;PMS_P1;PMS_P2;Temp;Humidity;BMP_temperature;BMP_pressure;BME280_temperature;BME280_humidity;BME280_pressure;Samples;Min_cycle;Max_cycle;Signal;HPM_P1;HPM_P2
2022/03/07 00:01:58;;;;;;;11.10;5.65;;;0.50;99.90;;;;;;5054512;28;20485;-57
2022/03/07 00:04:24;;;;;;;10.10;5.32;;;0.50;99.90;;;;;;5054544;28;20040;-56
2022/03/07 00:06:49;;;;;;;12.98;5.70;;;0.50;99.90;;;;;;5053978;28;20119;-57
2022/03/07 00:09:15;;;;;;;9.95;5.75;;;0.40;99.90;;;;;;5054066;28;20057;-56
2022/03/07 00:11:42;;;;;;;12.90;6.05;;;0.40;99.90;;;;;;5054714;28;20031;-56
2022/03/07 00:14:08;;;;;;;10.52;5.55;;;0.40;99.90;;;;;;5054744;28;20090;-57
2022/03/07 00:16:34;;;;;;;9.10;5.80;;;0.40;99.90;;;;;;5057835;28;20494;-56
2022/03/07 00:19:00;;;;;;;9.43;5.50;;;0.40;99.90;;;;;;5057203;28;20040;-57
2022/03/07 00:21:25;;;;;;;10.77;5.22;;;0.40;99.90;;;;;;5057491;28;20048;-56
2022/03/07 00:23:51;;;;;;;7.88;4.75;;;0.40;99.90;;;;;;5058401;28;20047;-56
2022/03/07 00:26:17;;;;;;;10.70;5.53;;;0.30;99.90;;;;;;5044532;28;20045;-56
2022/03/07 00:28:47;;;;;;;8.65;5.57;;;0.30;99.90;;;;;;5038448;28;20123;-55
2022/03/07 00:31:13;;;;;;;9.20;5.60;;;0.30;99.90;;;;;;5038998;28;20042;-56
2022/03/07 00:33:40;;;;;;;11.65;6.43;;;0.20;99.90;;;;;;5058202;28;20486;-57
2022/03/07 00:36:06;;;;;;;9.43;5.18;;;0.20;99.90;;;;;;5058299;28;20048;-55
2022/03/07 00:38:31;;;;;;;9.60;5.80;;;0.20;99.90;;;;;;5043723;28;20041;-56
2022/03/07 00:40:57;;;;;;;10.23;5.90;;;0.10;99.90;;;;;;5040092;28;20040;-57
2022/03/07 00:43:23;;;;;;;11.88;6.05;;;0.10;99.90;;;;;;5057782;28;20406;-56
2022/03/07 00:45:49;;;;;;;10.68;6.32;;;0.10;99.90;;;;;;5057914;28;20519;-56
2022/03/07 00:48:15;;;;;;;10.75;5.43;;;0.10;99.90;;;;;;5057936;28;20041;-58
2022/03/07 00:50:43;;;;;;;9.95;5.80;;;0.20;99.90;;;;;;5057447;28;20052;-57
2022/03/07 00:53:10;;;;;;;10.50;6.03;;;0.20;99.90;;;;;;5055834;28;20047;-55
2022/03/07 00:55:37;;;;;;;11.10;6.05;;;0.10;99.90;;;;;;5054626;28;20041;-56
2022/03/07 00:58:03;;;;;;;10.88;6.13;;;0.10;99.90;;;;;;5055150;28;20048;-56
2022/03/07 01:00:28;;;;;;;10.85;6.40;;;0.10;99.90;;;;;;5054850;28;20036;-57
2022/03/07 01:02:54;;;;;;;13.00;6.45;;;0.20;99.90;;;;;;5055820;28;20036;-56
2022/03/07 01:05:20;;;;;;;10.70;6.18;;;0.10;99.90;;;;;;5055631;28;20128;-56
2022/03/07 01:07:46;;;;;;;10.18;5.80;;;0.10;99.90;;;;;;5051714;28;20075;-56
2022/03/07 01:10:12;;;;;;;11.80;6.50;;;0.10;99.90;;;;;;5050868;28;20029;-57
2022/03/07 01:12:38;;;;;;;12.90;6.15;;;0.10;99.90;;;;;;5051978;28;20048;-57
2022/03/07 01:15:05;;;;;;;10.13;5.97;;;0.00;99.90;;;;;;5054229;28;20037;-57
2022/03/07 01:17:31;;;;;;;11.70;6.00;;;0.00;99.90;;;;;;5052700;28;20052;-56
2022/03/07 01:19:57;;;;;;;11.30;5.95;;;0.00;99.90;;;;;;5054617;28;20044;-57
2022/03/07 01:22:22;;;;;;;10.60;6.07;;;0.00;99.90;;;;;;5054685;28;20377;-57
2022/03/07 01:24:48;;;;;;;9.82;5.15;;;-0.10;99.90;;;;;;5069794;28;20162;-57
2022/03/07 01:27:14;;;;;;;9.27;5.13;;;-0.20;99.90;;;;;;5046862;28;20033;-57
2022/03/07 01:29:39;;;;;;;9.27;5.28;;;-0.20;99.90;;;;;;5051067;28;20047;-56
2022/03/07 01:32:05;;;;;;;8.90;5.38;;;-0.20;99.90;;;;;;5051379;28;20044;-58
2022/03/07 01:34:31;;;;;;;11.43;5.75;;;-0.20;99.90;;;;;;5054388;28;20416;-57
2022/03/07 01:36:57;;;;;;;12.65;6.00;;;-0.30;99.90;;;;;;5054188;28;20197;-56
2022/03/07 01:39:22;;;;;;;9.55;6.18;;;-0.30;99.90;;;;;;5054272;28;20120;-56
2022/03/07 01:41:48;;;;;;;8.95;5.88;;;-0.30;99.90;;;;;;5053767;28;20041;-57
2022/03/07 01:44:19;;;;;;;10.88;5.75;;;-0.40;99.90;;;;;;5054058;28;20122;-57
2022/03/07 01:46:45;;;;;;;9.65;6.07;;;-0.40;99.90;;;;;;5053861;28;20045;-57
2022/03/07 01:49:10;;;;;;;10.70;6.65;;;-0.30;99.90;;;;;;5054026;28;20067;-58
2022/03/07 01:51:36;;;;;;;13.82;7.15;;;-0.30;99.90;;;;;;5054143;28;20063;-56
2022/03/07 01:54:02;;;;;;;10.15;6.30;;;-0.30;99.90;;;;;;5053020;28;20481;-58
2022/03/07 01:56:27;;;;;;;11.27;6.47;;;-0.30;99.90;;;;;;5053571;28;20107;-57
2022/03/07 01:58:53;;;;;;;9.30;6.30;;;-0.30;99.90;;;;;;5052383;28;20532;-56
2022/03/07 02:01:18;;;;;;;12.60;6.40;;;-0.30;99.90;;;;;;5053447;28;20067;-57
2022/03/07 02:03:44;;;;;;;12.73;6.80;;;-0.40;99.90;;;;;;5053780;28;20060;-58
2022/03/07 02:06:11;;;;;;;12.50;6.40;;;-0.40;99.90;;;;;;5053794;28;20093;-57
2022/03/07 02:08:37;;;;;;;9.68;5.85;;;-0.40;99.90;;;;;;5055558;28;20048;-57
2022/03/07 02:11:03;;;;;;;13.35;8.15;;;-0.40;99.90;;;;;;5056216;28;20041;-56
2022/03/07 02:13:29;;;;;;;15.95;10.70;;;-0.50;99.90;;;;;;5054988;28;20051;-56
2022/03/07 02:15:56;;;;;;;13.23;7.88;;;-0.50;99.90;;;;;;5055789;28;20037;-56
2022/03/07 02:18:22;;;;;;;10.57;6.88;;;-0.60;99.90;;;;;;5056264;28;20041;-56
2022/03/07 02:20:56;;;;;;;13.00;8.13;;;-0.60;99.90;;;;;;5056385;28;20417;-55
2022/03/07 02:23:21;;;;;;;15.40;8.93;;;-0.60;99.90;;;;;;5054703;28;20029;-57
2022/03/07 02:25:47;;;;;;;16.65;8.77;;;-0.60;99.90;;;;;;5055010;28;20044;-56
2022/03/07 02:28:15;;;;;;;12.88;8.60;;;-0.50;99.90;;;;;;5055241;28;20029;-56
2022/03/07 02:30:40;;;;;;;14.18;8.75;;;-0.50;99.90;;;;;;5054761;28;20045;-56
2022/03/07 02:33:10;;;;;;;15.98;9.27;;;-0.50;99.90;;;;;;5054613;28;20382;-57
2022/03/07 02:35:36;;;;;;;12.48;7.63;;;-0.50;99.90;;;;;;5054305;28;20076;-57
2022/03/07 02:38:02;;;;;;;14.80;8.05;;;-0.50;99.90;;;;;;5054798;28;20069;-57
2022/03/07 02:40:27;;;;;;;12.95;7.70;;;-0.50;99.90;;;;;;5054710;28;20131;-57
2022/03/07 02:42:53;;;;;;;14.95;7.75;;;-0.50;99.90;;;;;;5055547;28;20131;-56
2022/03/07 02:45:18;;;;;;;11.70;6.93;;;-0.60;99.90;;;;;;5054657;28;20048;-58
2022/03/07 02:47:44;;;;;;;11.02;6.60;;;-0.60;99.90;;;;;;5054151;28;20048;-57
2022/03/07 02:50:09;;;;;;;14.85;7.55;;;-0.70;99.90;;;;;;5054356;28;20052;-57
2022/03/07 02:52:35;;;;;;;15.23;7.32;;;-0.70;99.90;;;;;;5055836;28;20047;-57
2022/03/07 02:55:01;;;;;;;12.02;7.75;;;-0.70;99.90;;;;;;5054994;28;20060;-57
2022/03/07 02:57:26;;;;;;;10.57;7.25;;;-0.80;99.90;;;;;;5054383;28;20126;-57
2022/03/07 02:59:52;;;;;;;12.70;7.47;;;-0.80;99.90;;;;;;5054928;28;20091;-57
2022/03/07 03:02:18;;;;;;;13.05;7.53;;;-0.80;99.90;;;;;;5054978;28;20041;-57
2022/03/07 03:04:44;;;;;;;11.43;6.85;;;-0.80;99.90;;;;;;5055130;28;20408;-57
2022/03/07 03:07:10;;;;;;;13.30;6.93;;;-0.80;99.90;;;;;;5055874;28;20040;-56
2022/03/07 03:09:35;;;;;;;13.77;7.55;;;-0.80;99.90;;;;;;5045499;28;20121;-56
2022/03/07 03:12:01;;;;;;;12.10;7.43;;;-0.80;99.90;;;;;;5054047;28;20068;-57
2022/03/07 03:14:26;;;;;;;14.45;7.40;;;-0.90;99.90;;;;;;5052241;28;20033;-58
2022/03/07 03:16:52;;;;;;;13.18;6.78;;;-0.90;99.90;;;;;;5048319;28;20041;-57
2022/03/07 03:19:17;;;;;;;12.50;7.65;;;-0.90;99.90;;;;;;5052065;28;20560;-57
2022/03/07 03:21:43;;;;;;;15.23;7.97;;;-0.90;99.90;;;;;;5056140;28;20032;-56
2022/03/07 03:24:09;;;;;;;16.17;7.88;;;-0.90;99.90;;;;;;5046356;28;20125;-56
2022/03/07 03:26:35;;;;;;;11.40;7.35;;;-0.90;99.90;;;;;;5055686;28;20503;-56
2022/03/07 03:29:01;;;;;;;11.98;7.07;;;-0.90;99.90;;;;;;5050429;28;20037;-57
2022/03/07 03:31:26;;;;;;;11.60;7.18;;;-0.70;99.90;;;;;;5053367;28;20037;-57
2022/03/07 03:33:53;;;;;;;14.10;7.30;;;-0.90;99.90;;;;;;5045458;28;20091;-56
2022/03/07 03:36:18;;;;;;;11.25;6.60;;;-0.90;99.90;;;;;;5046081;28;20511;-56
2022/03/07 03:38:44;;;;;;;11.77;7.18;;;-0.90;99.90;;;;;;5049507;28;20123;-57
2022/03/07 03:41:10;;;;;;;14.18;7.55;;;-0.90;99.90;;;;;;5053921;28;20041;-57
2022/03/07 03:43:35;;;;;;;13.63;8.07;;;-1.00;99.90;;;;;;5048793;28;20033;-57
2022/03/07 03:46:01;;;;;;;14.07;7.10;;;-1.00;99.90;;;;;;5044951;28;20040;-57
2022/03/07 03:48:26;;;;;;;13.68;7.45;;;-1.10;99.90;;;;;;5054125;28;20117;-56
2022/03/07 03:50:52;;;;;;;13.63;7.07;;;-1.00;99.90;;;;;;5055356;28;20045;-57
2022/03/07 03:53:17;;;;;;;14.00;7.32;;;-1.10;99.90;;;;;;5056296;28;20064;-57
2022/03/07 03:55:43;;;;;;;13.77;7.82;;;-1.10;99.90;;;;;;5056891;28;20393;-57
2022/03/07 03:58:08;;;;;;;11.65;7.05;;;-1.00;99.90;;;;;;5052788;28;20124;-57
2022/03/07 04:00:34;;;;;;;12.18;7.53;;;-1.00;99.90;;;;;;5035112;28;20498;-57
2022/03/07 04:03:00;;;;;;;12.43;7.18;;;-1.00;99.90;;;;;;5034537;28;20481;-57
2022/03/07 04:05:25;;;;;;;15.65;7.07;;;-1.00;99.90;;;;;;5054078;28;20036;-57
2022/03/07 04:07:51;;;;;;;13.25;7.47;;;-1.00;99.90;;;;;;5055210;28;20048;-57
2022/03/07 04:10:17;;;;;;;12.40;7.47;;;-1.00;99.90;;;;;;5054902;28;20115;-57
2022/03/07 04:12:43;;;;;;;14.63;7.35;;;-1.00;99.90;;;;;;5053802;28;20401;-57
2022/03/07 04:15:09;;;;;;;13.88;7.90;;;-1.00;99.90;;;;;;5055377;28;20049;-57
2022/03/07 04:17:42;;;;;;;13.52;7.47;;;-1.00;99.90;;;;;;5053286;28;20033;-57
2022/03/07 04:20:09;;;;;;;13.45;7.38;;;-1.00;99.90;;;;;;5052280;28;20057;-57
2022/03/07 04:22:36;;;;;;;14.15;7.57;;;-1.00;99.90;;;;;;5053305;28;20064;-57
2022/03/07 04:25:03;;;;;;;14.00;7.50;;;-1.10;99.90;;;;;;5052122;28;20112;-56
2022/03/07 04:27:28;;;;;;;19.00;7.28;;;-1.10;99.90;;;;;;5053302;28;20045;-57
2022/03/07 04:29:55;;;;;;;9.77;6.72;;;-1.10;99.90;;;;;;5053651;28;20065;-56
2022/03/07 04:32:21;;;;;;;10.43;6.78;;;-1.10;99.90;;;;;;5052912;28;20401;-56
2022/03/07 04:34:47;;;;;;;12.43;7.05;;;-1.10;99.90;;;;;;5052156;28;20041;-56
2022/03/07 04:37:12;;;;;;;13.50;7.63;;;-1.10;99.90;;;;;;5052926;28;20037;-57
2022/03/07 04:39:38;;;;;;;13.32;7.65;;;-1.20;99.90;;;;;;5053217;28;20542;-56
2022/03/07 04:42:04;;;;;;;14.13;8.20;;;-1.20;99.90;;;;;;5048358;28;20029;-56
2022/03/07 04:44:30;;;;;;;14.05;7.85;;;-1.20;99.90;;;;;;5032447;28;20041;-57
2022/03/07 04:46:55;;;;;;;13.02;8.02;;;-1.20;99.90;;;;;;5042417;28;20035;-57
2022/03/07 04:49:21;;;;;;;13.07;7.95;;;-1.20;99.90;;;;;;5053705;28;20033;-56
2022/03/07 04:51:47;;;;;;;14.15;8.70;;;-1.20;99.90;;;;;;5052021;28;20045;-56
2022/03/07 04:54:14;;;;;;;16.88;8.82;;;-1.20;99.90;;;;;;5053383;28;20040;-56
2022/03/07 04:56:43;;;;;;;15.50;8.68;;;-1.20;99.90;;;;;;5052614;28;20091;-56
2022/03/07 04:59:10;;;;;;;20.75;9.27;;;-1.20;99.90;;;;;;5042665;28;20044;-56
2022/03/07 05:01:36;;;;;;;15.45;9.02;;;-1.20;99.90;;;;;;5054743;28;20059;-56
2022/03/07 05:04:01;;;;;;;17.23;9.00;;;-1.20;99.90;;;;;;5074102;22;20123;-52
2022/03/07 05:06:27;;;;;;;14.07;8.20;;;-1.30;99.90;;;;;;5084709;28;20043;-50
2022/03/07 05:08:53;;;;;;;17.35;8.75;;;-1.30;99.90;;;;;;5074663;28;20036;-50
2022/03/07 05:11:18;;;;;;;15.93;8.10;;;-1.30;99.90;;;;;;5040108;28;20500;-51
2022/03/07 05:13:44;;;;;;;16.00;8.55;;;-1.30;99.90;;;;;;5075284;28;20036;-49
2022/03/07 05:16:09;;;;;;;13.15;8.48;;;-1.40;99.90;;;;;;5094110;28;20533;-53
2022/03/07 05:18:35;;;;;;;15.90;8.75;;;-1.40;99.90;;;;;;5094386;28;20225;-49
2022/03/07 05:21:01;;;;;;;15.13;9.88;;;-1.30;99.90;;;;;;5074588;28;20399;-50
2022/03/07 05:23:26;;;;;;;16.25;9.32;;;-1.30;99.90;;;;;;5074292;28;20039;-52
2022/03/07 05:25:52;;;;;;;19.35;10.23;;;-1.30;99.90;;;;;;5067155;28;20122;-50
2022/03/07 05:28:17;;;;;;;17.30;9.98;;;-1.30;99.90;;;;;;5073837;28;20036;-51
2022/03/07 05:30:43;;;;;;;17.15;10.35;;;-1.30;99.90;;;;;;5072709;28;20516;-52
2022/03/07 05:33:08;;;;;;;19.20;11.13;;;-1.30;99.90;;;;;;5053808;28;20067;-51
2022/03/07 05:35:34;;;;;;;17.67;9.82;;;-1.40;99.90;;;;;;5053793;28;20099;-50
2022/03/07 05:38:00;;;;;;;13.68;8.38;;;-1.40;99.90;;;;;;5072207;28;20083;-53
2022/03/07 05:40:26;;;;;;;16.80;9.63;;;-1.40;99.90;;;;;;5072741;28;20035;-52
2022/03/07 05:42:51;;;;;;;17.45;9.85;;;-1.40;99.90;;;;;;5072536;28;20404;-52
2022/03/07 05:45:17;;;;;;;21.05;10.57;;;-1.50;99.90;;;;;;5073456;28;20036;-52
2022/03/07 05:47:43;;;;;;;17.77;10.52;;;-1.50;99.90;;;;;;5073309;28;20036;-54
2022/03/07 05:50:10;;;;;;;17.00;10.50;;;-1.50;99.90;;;;;;5073891;28;20466;-50
2022/03/07 05:52:36;;;;;;;19.10;10.73;;;-1.50;99.90;;;;;;5073846;28;20126;-53
2022/03/07 05:55:04;;;;;;;17.05;10.65;;;-1.50;99.90;;;;;;5072469;28;20037;-50
2022/03/07 05:57:29;;;;;;;17.92;10.32;;;-1.50;99.90;;;;;;5072811;28;20036;-51
2022/03/07 05:59:55;;;;;;;19.60;10.10;;;-1.40;99.90;;;;;;5072550;28;20112;-50
2022/03/07 06:02:21;;;;;;;18.13;10.48;;;-1.50;99.90;;;;;;5073784;28;20033;-49
2022/03/07 06:04:47;;;;;;;19.52;10.93;;;-1.50;99.90;;;;;;5073818;28;20059;-51
2022/03/07 06:07:13;;;;;;;19.52;10.73;;;-1.50;99.90;;;;;;5064438;28;20496;-50
2022/03/07 06:09:39;;;;;;;19.05;11.13;;;-1.50;99.90;;;;;;5058964;28;20048;-49
2022/03/07 06:12:06;;;;;;;19.10;10.63;;;-1.50;99.90;;;;;;5051431;28;20033;-49
2022/03/07 06:14:31;;;;;;;20.15;11.10;;;-1.50;99.90;;;;;;5052636;28;20041;-53
2022/03/07 06:16:57;;;;;;;23.17;11.23;;;-1.50;99.90;;;;;;5052736;28;20194;-50
2022/03/07 06:19:23;;;;;;;30.00;11.60;;;-1.50;99.90;;;;;;5071451;28;20121;-49
2022/03/07 06:21:48;;;;;;;21.33;11.70;;;-1.50;99.90;;;;;;5069656;28;20043;-49
2022/03/07 06:24:14;;;;;;;20.73;11.88;;;-1.50;99.90;;;;;;5067629;28;20060;-52
2022/03/07 06:26:39;;;;;;;22.10;12.00;;;-1.50;99.90;;;;;;5064717;28;20028;-50
2022/03/07 06:29:06;;;;;;;20.33;12.50;;;-1.40;99.90;;;;;;5063521;28;20043;-50
2022/03/07 06:31:32;;;;;;;21.35;11.77;;;-1.40;99.90;;;;;;5057871;28;20095;-49
2022/03/07 06:33:57;;;;;;;22.77;12.57;;;-1.30;99.90;;;;;;5059794;28;20041;-52
2022/03/07 06:36:23;;;;;;;22.75;11.70;;;-1.30;99.90;;;;;;5060391;28;20040;-51
2022/03/07 06:38:49;;;;;;;22.95;11.70;;;-1.20;99.90;;;;;;5057368;28;20053;-51
2022/03/07 06:41:14;;;;;;;17.73;11.02;;;-1.20;99.90;;;;;;5060747;28;20037;-50
2022/03/07 06:43:40;;;;;;;18.95;10.90;;;-1.20;99.90;;;;;;5062733;28;20043;-52
2022/03/07 06:46:06;;;;;;;19.67;11.75;;;-1.20;99.90;;;;;;5065391;28;20043;-51
2022/03/07 06:48:33;;;;;;;22.10;11.82;;;-1.20;99.90;;;;;;5071678;28;20385;-53
2022/03/07 06:50:58;;;;;;;19.58;12.07;;;-1.20;99.90;;;;;;5060632;28;20049;-50
2022/03/07 06:53:24;;;;;;;23.60;13.00;;;-1.20;99.90;;;;;;5052531;28;20037;-52
2022/03/07 06:55:51;;;;;;;28.42;12.38;;;-1.20;99.90;;;;;;5052379;28;20080;-51
2022/03/07 06:58:17;;;;;;;19.77;11.30;;;-1.10;99.90;;;;;;5053002;28;20056;-49
2022/03/07 07:00:43;;;;;;;17.42;10.73;;;-1.10;99.90;;;;;;5052248;28;20108;-50
2022/03/07 07:03:09;;;;;;;15.35;9.90;;;-1.10;99.90;;;;;;5057940;28;20107;-52
2022/03/07 07:05:34;;;;;;;17.70;10.00;;;-1.00;99.90;;;;;;5072126;28;20032;-49
2022/03/07 07:08:00;;;;;;;16.27;9.93;;;-1.00;99.90;;;;;;5072032;28;20559;-50
2022/03/07 07:10:26;;;;;;;18.33;9.75;;;-1.00;99.90;;;;;;5071123;28;20489;-50
2022/03/07 07:12:52;;;;;;;18.17;10.48;;;-1.00;99.90;;;;;;5061239;28;20093;-53
2022/03/07 07:15:19;;;;;;;17.92;10.32;;;-1.00;99.90;;;;;;5061370;28;20438;-53
2022/03/07 07:17:45;;;;;;;20.25;11.00;;;-0.90;99.90;;;;;;5042832;28;20043;-53
2022/03/07 07:20:12;;;;;;;21.23;10.52;;;-0.90;99.90;;;;;;5080996;28;20036;-53
2022/03/07 07:22:39;;;;;;;20.63;10.55;;;-0.90;99.90;;;;;;5058231;28;20033;-53
2022/03/07 07:25:05;;;;;;;16.13;10.55;;;-0.80;99.90;;;;;;5059194;28;20099;-53
2022/03/07 07:27:32;;;;;;;20.60;11.45;;;-0.80;99.90;;;;;;5064994;28;20169;-51
2022/03/07 07:29:57;;;;;;;20.23;12.23;;;-0.80;99.90;;;;;;5059417;28;20037;-53
2022/03/07 07:32:24;;;;;;;20.08;12.35;;;-0.70;99.90;;;;;;5059363;28;20507;-52
2022/03/07 07:34:49;;;;;;;23.13;12.45;;;-0.50;99.90;;;;;;5055554;28;20038;-53
2022/03/07 07:37:15;;;;;;;21.70;12.27;;;-0.40;99.90;;;;;;5031837;28;20047;-52
2022/03/07 07:39:41;;;;;;;23.63;12.93;;;-0.30;99.90;;;;;;5043757;28;20032;-52
2022/03/07 07:42:07;;;;;;;22.25;13.10;;;-0.20;99.90;;;;;;5064118;28;20060;-53
2022/03/07 07:44:33;;;;;;;22.50;13.27;;;-0.10;99.90;;;;;;5062299;28;20079;-53
2022/03/07 07:46:58;;;;;;;24.73;14.00;;;0.00;99.90;;;;;;5061552;28;20459;-54
2022/03/07 07:49:24;;;;;;;23.15;12.68;;;0.20;99.90;;;;;;5067947;28;20450;-54
2022/03/07 07:51:53;;;;;;;25.73;13.85;;;0.20;99.90;;;;;;5061904;28;20519;-53
2022/03/07 07:54:19;;;;;;;25.83;12.73;;;0.30;99.90;;;;;;5060352;28;20071;-55
2022/03/07 07:56:45;;;;;;;21.65;12.73;;;0.40;99.90;;;;;;5061193;28;20091;-55
2022/03/07 07:59:11;;;;;;;21.67;13.25;;;0.50;99.90;;;;;;5063928;28;20040;-53
2022/03/07 08:01:37;;;;;;;23.27;13.88;;;0.50;99.90;;;;;;5062294;28;20033;-53
2022/03/07 08:04:03;;;;;;;23.95;12.88;;;0.60;99.90;;;;;;5064853;28;20044;-53
2022/03/07 08:06:29;;;;;;;21.60;14.23;;;0.60;99.90;;;;;;5056382;28;20029;-53
2022/03/07 08:08:54;;;;;;;23.20;14.05;;;0.60;99.90;;;;;;5070184;28;20048;-53
2022/03/07 08:11:20;;;;;;;22.67;13.43;;;0.70;99.90;;;;;;5071316;28;20084;-53
2022/03/07 08:13:46;;;;;;;24.90;14.88;;;0.70;99.90;;;;;;5071603;28;20064;-52
2022/03/07 08:16:11;;;;;;;23.88;14.13;;;0.80;99.90;;;;;;5069832;28;20563;-55
2022/03/07 08:18:37;;;;;;;26.02;15.70;;;0.80;99.90;;;;;;5069335;28;20412;-53
2022/03/07 08:21:03;;;;;;;24.45;14.57;;;0.90;99.90;;;;;;5071481;28;20158;-52
2022/03/07 08:23:29;;;;;;;27.05;14.52;;;0.90;99.90;;;;;;5070248;28;20416;-51
2022/03/07 08:25:54;;;;;;;26.25;14.65;;;1.10;99.90;;;;;;5069969;28;20541;-54
2022/03/07 08:28:20;;;;;;;33.53;15.13;;;1.10;99.90;;;;;;5067582;28;20115;-56
2022/03/07 08:30:46;;;;;;;26.30;14.77;;;1.20;99.90;;;;;;5071145;28;20037;-54
2022/03/07 08:33:11;;;;;;;27.73;15.05;;;1.40;99.90;;;;;;5067922;28;20484;-55
2022/03/07 08:35:37;;;;;;;25.67;16.17;;;1.60;99.90;;;;;;5071251;28;20086;-52
2022/03/07 08:38:03;;;;;;;28.70;14.38;;;1.80;99.90;;;;;;5074646;28;20047;-54
2022/03/07 08:40:29;;;;;;;24.70;14.57;;;2.00;99.90;;;;;;5074177;28;20059;-54
2022/03/07 08:42:55;;;;;;;24.23;15.00;;;2.20;99.90;;;;;;5075320;28;20040;-53
2022/03/07 08:45:22;;;;;;;25.73;13.30;;;2.40;99.90;;;;;;5074791;28;20115;-54
2022/03/07 08:47:47;;;;;;;22.08;13.07;;;2.70;99.90;;;;;;5074989;28;20044;-52
2022/03/07 08:50:15;;;;;;;21.55;11.55;;;2.90;99.90;;;;;;5074964;28;20589;-54
2022/03/07 08:52:40;;;;;;;16.27;10.60;;;3.10;99.90;;;;;;5074820;28;20048;-54
2022/03/07 08:55:07;;;;;;;22.38;10.27;;;3.30;99.90;;;;;;5073907;28;20453;-54
2022/03/07 08:57:33;;;;;;;18.42;10.30;;;3.50;99.90;;;;;;5074273;28;20044;-55
2022/03/07 08:59:59;;;;;;;15.27;9.68;;;3.70;99.90;;;;;;5074785;28;20040;-55
2022/03/07 09:02:25;;;;;;;17.10;9.52;;;3.80;99.90;;;;;;5068403;28;20043;-55
2022/03/07 09:04:50;;;;;;;15.80;10.38;;;4.00;99.90;;;;;;5074245;28;20032;-53
2022/03/07 09:07:16;;;;;;;14.35;8.77;;;4.10;99.90;;;;;;5072965;28;20045;-56
2022/03/07 09:09:41;;;;;;;13.30;7.85;;;4.20;99.90;;;;;;5073687;28;20116;-54
2022/03/07 09:12:08;;;;;;;16.60;7.88;;;4.40;99.90;;;;;;5074561;28;20286;-57
2022/03/07 09:14:33;;;;;;;12.68;5.78;;;4.50;99.90;;;;;;5074525;28;20037;-54
2022/03/07 09:16:59;;;;;;;10.48;4.80;;;4.60;99.90;;;;;;5074190;28;20048;-55
2022/03/07 09:19:25;;;;;;;10.23;5.07;;;4.60;99.90;;;;;;5068564;28;20068;-53
2022/03/07 09:21:51;;;;;;;10.32;5.18;;;4.80;99.90;;;;;;5071175;28;20106;-49
2022/03/07 09:24:17;;;;;;;9.40;5.53;;;4.90;99.90;;;;;;5073365;28;20485;-52
2022/03/07 09:26:43;;;;;;;10.48;4.95;;;5.00;99.90;;;;;;5072284;28;20094;-52
2022/03/07 09:29:10;;;;;;;8.90;4.90;;;5.10;99.90;;;;;;5069978;28;20048;-51
2022/03/07 09:31:36;;;;;;;8.80;5.55;;;5.10;99.90;;;;;;5074081;28;20055;-51
2022/03/07 09:34:02;;;;;;;11.05;5.40;;;5.10;99.90;;;;;;5072422;28;20123;-56
2022/03/07 09:36:27;;;;;;;7.13;4.07;;;5.10;99.90;;;;;;5066859;28;20040;-51
2022/03/07 09:38:53;;;;;;;6.13;3.80;;;5.20;99.90;;;;;;5055943;28;20064;-50
2022/03/07 09:41:19;;;;;;;12.18;4.63;;;5.30;99.90;;;;;;5073728;28;20538;-49
2022/03/07 09:43:46;;;;;;;8.57;4.43;;;5.30;99.90;;;;;;5074066;28;20041;-49
2022/03/07 09:46:14;;;;;;;7.85;4.35;;;5.40;99.90;;;;;;5070377;28;20040;-49
2022/03/07 09:48:40;;;;;;;8.93;4.78;;;5.40;99.90;;;;;;5055702;28;20044;-49
2022/03/07 09:51:06;;;;;;;7.53;4.70;;;5.60;99.90;;;;;;5073988;28;20032;-47
2022/03/07 09:53:32;;;;;;;9.18;5.32;;;5.60;99.90;;;;;;5070307;28;20032;-53
2022/03/07 09:55:57;;;;;;;9.27;4.30;;;5.60;99.90;;;;;;5071316;28;20578;-56
2022/03/07 09:58:23;;;;;;;8.05;3.90;;;5.70;99.90;;;;;;5073419;28;20040;-50
2022/03/07 10:00:49;;;;;;;6.97;4.03;;;5.80;99.90;;;;;;5073480;28;20048;-51
2022/03/07 10:03:15;;;;;;;8.95;4.93;;;5.80;99.90;;;;;;5071057;28;20510;-53
2022/03/07 10:05:44;;;;;;;9.55;4.85;;;5.90;99.90;;;;;;5055972;28;20043;-53
2022/03/07 10:08:10;;;;;;;8.57;4.70;;;5.90;99.90;;;;;;5059816;28;20028;-53
2022/03/07 10:10:37;;;;;;;9.80;4.85;;;6.00;99.90;;;;;;5063274;28;20049;-50
2022/03/07 10:13:23;;;;;;;8.93;4.93;;;6.00;99.90;;;;;;5065478;28;20480;-50
2022/03/07 10:16:00;;;;;;;9.88;5.20;;;6.00;99.90;;;;;;5058534;28;20045;-50
2022/03/07 10:18:27;;;;;;;11.43;5.35;;;6.10;99.90;;;;;;5057150;28;20609;-51
2022/03/07 10:20:58;;;;;;;9.98;4.78;;;6.10;99.90;;;;;;5060605;28;20508;-50
2022/03/07 10:23:25;;;;;;;11.80;5.22;;;6.20;99.90;;;;;;5058979;28;20036;-52
2022/03/07 10:25:51;;;;;;;12.30;5.07;;;6.20;99.90;;;;;;5070296;28;20108;-53
2022/03/07 10:28:17;;;;;;;10.32;5.78;;;6.20;99.90;;;;;;5067091;28;20618;-53
2022/03/07 10:30:43;;;;;;;12.20;5.50;;;6.20;99.90;;;;;;5063624;28;20117;-54
2022/03/07 10:33:11;;;;;;;13.02;6.03;;;6.10;99.90;;;;;;5063844;28;20117;-54
2022/03/07 10:35:41;;;;;;;10.80;5.22;;;6.00;99.90;;;;;;5064365;28;20044;-53
2022/03/07 10:38:09;;;;;;;9.85;5.28;;;6.10;99.90;;;;;;5066533;28;20049;-54
2022/03/07 10:40:39;;;;;;;8.45;4.72;;;6.20;99.90;;;;;;5064562;28;20040;-53
2022/03/07 10:43:07;;;;;;;9.27;4.88;;;6.40;99.90;;;;;;5066133;28;20028;-54
2022/03/07 10:45:47;;;;;;;7.88;4.70;;;6.60;99.90;;;;;;5063726;28;20064;-55
2022/03/07 10:48:12;;;;;;;9.70;4.72;;;6.60;99.90;;;;;;5064224;28;20044;-56
2022/03/07 10:50:38;;;;;;;8.70;4.97;;;6.60;99.90;;;;;;5065046;28;20131;-53
2022/03/07 10:53:08;;;;;;;8.85;4.43;;;6.60;99.90;;;;;;5064956;28;20040;-50
2022/03/07 10:55:34;;;;;;;7.90;4.75;;;6.70;99.90;;;;;;5057090;28;20492;-50
2022/03/07 10:58:13;;;;;;;8.35;4.10;;;6.60;99.90;;;;;;5063759;28;20495;-53
2022/03/07 11:01:06;;;;;;;12.43;4.40;;;6.60;99.90;;;;;;5071963;28;20526;-52
2022/03/07 11:03:33;;;;;;;6.72;4.00;;;6.50;99.90;;;;;;5060299;28;20106;-52
2022/03/07 11:06:01;;;;;;;7.40;3.67;;;6.50;99.70;;;;;;5094514;22;20040;-50
2022/03/07 11:08:28;;;;;;;7.85;3.53;;;6.50;98.90;;;;;;5091411;28;20445;-51
2022/03/07 11:10:56;;;;;;;6.10;3.40;;;6.70;97.80;;;;;;5077506;28;20055;-51
2022/03/07 11:13:29;;;;;;;5.63;3.65;;;6.90;97.40;;;;;;5090046;28;20036;-50
2022/03/07 11:16:00;;;;;;;9.38;3.47;;;7.00;96.50;;;;;;5085942;28;20131;-50
2022/03/07 11:18:26;;;;;;;8.93;3.97;;;7.00;96.00;;;;;;5091125;28;20036;-51
2022/03/07 11:20:54;;;;;;;7.50;3.70;;;6.80;96.10;;;;;;5083749;28;20043;-51
2022/03/07 11:23:23;;;;;;;10.55;4.55;;;6.70;97.20;;;;;;5089145;28;20040;-51
2022/03/07 11:25:53;;;;;;;7.00;4.00;;;6.70;97.50;;;;;;5090417;28;20068;-51
2022/03/07 11:28:22;;;;;;;7.88;3.92;;;6.70;97.20;;;;;;5082926;28;20040;-52
2022/03/07 11:30:48;;;;;;;8.38;4.68;;;6.60;98.00;;;;;;5083539;28;20101;-52
2022/03/07 11:33:15;;;;;;;9.75;4.32;;;6.60;98.10;;;;;;5089493;28;20476;-51
2022/03/07 11:35:50;;;;;;;9.95;4.85;;;6.60;98.50;;;;;;5088352;28;20679;-54
2022/03/07 11:38:24;;;;;;;11.38;5.25;;;6.80;98.40;;;;;;5088025;28;20041;-52
2022/03/07 11:41:03;;;;;;;8.18;4.40;;;6.90;97.80;;;;;;5082700;28;20044;-51
2022/03/07 11:43:31;;;;;;;9.98;4.25;;;7.00;98.20;;;;;;5079921;28;20052;-51
2022/03/07 11:45:58;;;;;;;9.90;4.28;;;7.20;98.40;;;;;;5090825;28;20078;-51
2022/03/07 11:48:31;;;;;;;6.60;3.78;;;7.30;96.20;;;;;;5083200;28;20047;-51
2022/03/07 11:50:57;;;;;;;6.40;3.22;;;7.40;93.00;;;;;;5090533;28;20040;-52
2022/03/07 11:53:23;;;;;;;10.30;3.65;;;7.40;91.60;;;;;;5083462;28;20036;-51
2022/03/07 11:55:51;;;;;;;9.02;3.55;;;7.40;91.60;;;;;;5089860;28;20040;-51
2022/03/07 11:58:32;;;;;;;7.78;4.07;;;7.50;91.20;;;;;;5089141;28;20151;-51
2022/03/07 12:01:06;;;;;;;6.30;3.85;;;7.50;91.40;;;;;;5083392;28;20040;-51
2022/03/07 12:03:34;;;;;;;8.93;4.22;;;7.60;91.60;;;;;;5089405;28;20058;-52
2022/03/07 12:06:02;;;;;;;7.13;4.25;;;7.70;91.00;;;;;;5081400;28;20040;-52
2022/03/07 12:08:27;;;;;;;5.53;2.88;;;7.70;90.40;;;;;;5082822;28;20048;-51
2022/03/07 12:10:57;;;;;;;5.85;3.10;;;7.80;84.70;;;;;;5083300;28;20044;-52
2022/03/07 12:13:23;;;;;;;6.40;3.08;;;7.90;84.20;;;;;;5077439;28;20059;-51
2022/03/07 12:15:53;;;;;;;6.90;3.15;;;8.00;84.50;;;;;;5091741;28;20036;-51
2022/03/07 12:18:19;;;;;;;8.23;3.40;;;8.00;86.10;;;;;;5093694;28;20093;-51
2022/03/07 12:20:57;;;;;;;8.13;3.22;;;8.00;86.20;;;;;;5094117;28;20036;-52
2022/03/07 12:23:25;;;;;;;4.53;2.70;;;8.00;84.30;;;;;;5090285;28;20178;-52
2022/03/07 12:26:05;;;;;;;6.22;2.60;;;8.00;83.70;;;;;;5093059;28;20086;-53
2022/03/07 12:28:37;;;;;;;5.75;2.08;;;8.00;82.30;;;;;;5093261;28;20092;-52
2022/03/07 12:31:05;;;;;;;2.73;1.73;;;8.10;80.70;;;;;;5094195;28;20036;-52
2022/03/07 12:33:31;;;;;;;4.82;2.10;;;8.00;77.90;;;;;;5094081;28;20407;-52
2022/03/07 12:36:16;;;;;;;5.05;2.30;;;8.00;77.10;;;;;;5091203;28;20052;-52
2022/03/07 12:38:51;;;;;;;3.95;2.00;;;8.10;73.20;;;;;;5094165;28;20039;-52
2022/03/07 12:41:42;;;;;;;3.55;2.08;;;8.10;74.40;;;;;;5092536;28;20051;-52